Accueil
METAR-TAF:

METAR-TAF

Aéroports :

Agartala, Inde

latitude: 23-53-24N, longitude: 91-14-32E, altitude: 14 m

Observation

Le bulletin a été fait il y a 13 heures et 31 minutes, à 13:00 UTC
Vent calme
Température 31°C
Humidité 59%
Pression 1006 hPa
Visibilité: 5000 m
brume sèche

METAR: VEAT 071300Z 00000KT 5000 HZ NSC 31/22 Q1006 NOSIG

Heure: 08:01 (02:31 UTC)

Prévision

Le bulletin a été fait il y a 3 heures et 31 minutes, à 23:00 UTC
Prévision valable du 08 à 00 UTC au 08 à 09 UTC
Vent kt de nord
Visibilité: 2000 m
Quelques nuages à une hauteur de 2000 ft
Nuages épars à une hauteur de 10000 ft
brume
Evoluant progressivement
du 08 à 02 UTC au 08 à 04 UTC
Visibilité: 3000 m
brume

TAF: VEAT 072300Z 0800/0809 00000KT 2000 BR FEW020 SCT100 BECMG 0802/0804 3000 BR

Observations et prévisions météorologiques de plus de 4000 aéroports (messages METAR et TAF).

Les stations disponibles sont représentées par des disques jaunes et rouges sur la carte.

Passer la souris dessus pour voir le nom de la station.

Cliquer dessus pour voir les observations et prévisions météorologiques.

Pour changer de carte: cliquez sur les boutons verts avec une croix noire pour zoomer, sur le bouton vert avec un tiret pour effectuer un zoom arrière, ou sur les flèches vertes pour les cartes adjacentes.


METAR-TAF: